createdAt,value
2023-03-12T00:00:44.836Z,1.50
2023-03-12T00:03:48.555Z,1.49
2023-03-12T00:06:51.441Z,1.47
2023-03-12T00:09:55.636Z,1.50
2023-03-12T00:12:58.628Z,1.47
2023-03-12T00:16:06.109Z,1.41
2023-03-12T00:19:09.087Z,1.37
2023-03-12T00:22:12.201Z,1.38
2023-03-12T00:25:17.733Z,1.37
2023-03-12T00:28:20.577Z,1.37
2023-03-12T00:31:26.121Z,1.15
2023-03-12T00:34:28.992Z,1.16
2023-03-12T00:37:33.113Z,1.18
2023-03-12T00:40:39.288Z,1.19
2023-03-12T00:43:42.189Z,1.14
2023-03-12T00:46:45.077Z,1.12
2023-03-12T00:49:47.893Z,1.08
2023-03-12T00:52:51.253Z,1.04
2023-03-12T00:55:55.504Z,0.98
2023-03-12T00:58:58.850Z,0.96
2023-03-12T01:02:01.592Z,0.96
2023-03-12T01:05:05.160Z,1.04
2023-03-12T01:08:08.602Z,1.06
2023-03-12T01:11:16.434Z,1.04
2023-03-12T01:14:19.232Z,1.12
2023-03-12T01:17:22.333Z,1.09
2023-03-12T01:20:25.254Z,1.15
2023-03-12T01:23:28.095Z,1.16
2023-03-12T01:26:32.180Z,1.17
2023-03-12T01:29:35.043Z,1.17
2023-03-12T01:32:38.019Z,1.20
2023-03-12T01:35:42.468Z,1.24
2023-03-12T01:38:45.462Z,1.29
2023-03-12T01:41:49.819Z,1.30
2023-03-12T01:44:54.552Z,1.38
2023-03-12T01:47:57.409Z,1.42
2023-03-12T01:51:01.391Z,1.54
2023-03-12T01:54:08.724Z,1.61
2023-03-12T01:57:16.990Z,1.74
2023-03-12T02:00:22.861Z,1.78
2023-03-12T02:03:25.898Z,1.83
2023-03-12T02:06:36.157Z,1.99
2023-03-12T02:09:43.075Z,2.04
2023-03-12T02:12:47.312Z,2.15
2023-03-12T02:15:50.228Z,2.09
2023-03-12T02:18:55.636Z,2.19
2023-03-12T02:21:59.640Z,2.23
2023-03-12T02:25:07.865Z,2.27
2023-03-12T02:28:15.851Z,2.17
2023-03-12T02:31:22.209Z,2.11
2023-03-12T02:34:25.067Z,2.22
2023-03-12T02:37:28.056Z,2.27
2023-03-12T02:40:36.680Z,2.29
2023-03-12T02:43:43.455Z,2.21
2023-03-12T02:46:49.600Z,2.09
2023-03-12T02:49:53.684Z,2.16
2023-03-12T02:52:56.561Z,2.07
2023-03-12T02:55:59.399Z,2.10
2023-03-12T02:59:04.546Z,2.10
2023-03-12T03:02:09.604Z,2.10
2023-03-12T03:05:13.177Z,2.14
2023-03-12T03:08:16.052Z,2.09
2023-03-12T03:11:19.121Z,2.05
2023-03-12T03:14:23.421Z,1.97
2023-03-12T03:17:26.592Z,2.06
2023-03-12T03:20:29.500Z,2.10
2023-03-12T03:23:32.858Z,2.09
2023-03-12T03:26:35.629Z,2.16
2023-03-12T03:29:40.216Z,2.17
2023-03-12T03:32:43.542Z,2.12
2023-03-12T03:35:46.761Z,2.10
2023-03-12T03:38:50.550Z,2.10
2023-03-12T03:41:53.482Z,2.07
2023-03-12T03:44:57.679Z,2.06
2023-03-12T03:48:00.667Z,2.03
2023-03-12T03:51:05.099Z,2.07
2023-03-12T03:54:08.040Z,2.07
2023-03-12T03:57:10.990Z,2.10
2023-03-12T04:00:17.929Z,2.10
2023-03-12T04:03:20.749Z,2.08
2023-03-12T04:06:24.238Z,2.15
2023-03-12T04:09:27.120Z,2.09
2023-03-12T04:12:30.020Z,2.13
2023-03-12T04:15:34.420Z,2.23
2023-03-12T04:18:37.475Z,2.25
2023-03-12T04:21:40.537Z,2.25
2023-03-12T04:24:43.357Z,2.30
2023-03-12T04:27:46.261Z,2.25
2023-03-12T04:30:59.681Z,2.30
2023-03-12T04:34:02.724Z,2.31
2023-03-12T04:37:05.560Z,2.36
2023-03-12T04:40:09.948Z,2.44
2023-03-12T04:43:12.893Z,2.47
2023-03-12T04:46:17.162Z,2.55
2023-03-12T04:49:20.013Z,2.58
2023-03-12T04:52:22.778Z,2.65
2023-03-12T04:55:25.628Z,2.77
2023-03-12T04:58:28.768Z,2.75
2023-03-12T05:01:35.164Z,2.73
2023-03-12T05:04:38.264Z,2.77
2023-03-12T05:07:41.137Z,2.78
2023-03-12T05:10:45.897Z,2.83
2023-03-12T05:13:49.200Z,2.88
2023-03-12T05:16:53.377Z,2.84
2023-03-12T05:19:56.379Z,2.86
2023-03-12T05:22:59.135Z,2.83
2023-03-12T05:26:01.996Z,2.86
2023-03-12T05:29:06.390Z,2.90
2023-03-12T05:32:10.715Z,2.95
2023-03-12T05:35:13.723Z,2.93
2023-03-12T05:38:16.586Z,2.92
2023-03-12T05:41:21.437Z,2.98
2023-03-12T05:44:25.168Z,2.99
2023-03-12T05:47:30.089Z,3.08
2023-03-12T05:50:33.101Z,3.19
2023-03-12T05:53:36.029Z,3.18
2023-03-12T05:56:39.074Z,3.19
2023-03-12T05:59:41.872Z,3.25
2023-03-12T06:02:46.193Z,3.33
2023-03-12T06:05:49.017Z,3.41
2023-03-12T06:08:52.590Z,3.46
2023-03-12T06:11:55.516Z,3.46
2023-03-12T06:14:58.844Z,3.55
2023-03-12T06:18:03.087Z,3.52
2023-03-12T06:21:10.896Z,3.38
2023-03-12T06:24:13.765Z,3.36
2023-03-12T06:27:17.457Z,3.35
2023-03-12T06:30:20.303Z,3.29
2023-03-12T06:33:24.457Z,3.26
2023-03-12T06:36:27.195Z,3.27
2023-03-12T06:39:30.362Z,3.28
2023-03-12T06:42:33.215Z,3.29
2023-03-12T06:45:35.984Z,3.28
2023-03-12T06:48:41.581Z,3.24
2023-03-12T06:51:44.890Z,3.20
2023-03-12T06:54:47.709Z,3.18
2023-03-12T06:57:50.552Z,3.25
2023-03-12T07:00:54.363Z,3.28
2023-03-12T07:03:58.500Z,3.28
2023-03-12T07:07:01.198Z,3.29
2023-03-12T07:10:04.066Z,3.26
2023-03-12T07:13:07.130Z,3.33
2023-03-12T07:16:10.456Z,3.40
2023-03-12T07:19:14.965Z,3.52
2023-03-12T07:22:18.027Z,3.69
2023-03-12T07:25:20.971Z,3.70
2023-03-12T07:28:24.151Z,3.71
2023-03-12T07:31:27.077Z,3.83
2023-03-12T07:34:31.482Z,3.85
2023-03-12T07:37:34.381Z,3.90
2023-03-12T07:40:37.839Z,3.99
2023-03-12T07:43:40.735Z,4.14
2023-03-12T07:46:44.498Z,4.31
2023-03-12T07:49:49.384Z,4.48
2023-03-12T07:52:52.520Z,4.52
2023-03-12T07:55:56.243Z,4.56
2023-03-12T07:58:59.162Z,4.58
2023-03-12T08:02:02.368Z,4.66
2023-03-12T08:05:07.210Z,4.76
2023-03-12T08:08:10.190Z,4.84
2023-03-12T08:11:12.987Z,4.77
2023-03-12T08:14:15.936Z,4.70
2023-03-12T08:17:18.797Z,4.73
2023-03-12T08:20:23.089Z,4.56
2023-03-12T08:23:26.686Z,4.52
2023-03-12T08:26:29.540Z,4.42
2023-03-12T08:29:33.550Z,4.38
2023-03-12T08:32:36.566Z,4.35
2023-03-12T08:35:40.934Z,4.34
2023-03-12T08:38:43.920Z,4.37
2023-03-12T08:41:46.822Z,4.44
2023-03-12T08:44:49.930Z,4.55
2023-03-12T08:47:52.813Z,4.67
2023-03-12T08:50:58.004Z,4.81
2023-03-12T08:54:00.717Z,4.89
2023-03-12T08:57:03.762Z,4.99
2023-03-12T09:00:12.488Z,5.05
2023-03-12T09:03:15.355Z,5.13
2023-03-12T09:06:19.618Z,5.21
2023-03-12T09:09:22.444Z,5.30
2023-03-12T09:12:25.847Z,5.34
2023-03-12T09:15:28.880Z,5.46
2023-03-12T09:18:31.906Z,5.61
2023-03-12T09:21:36.087Z,5.75
2023-03-12T09:40:48.451Z,6.38
2023-03-12T09:43:56.572Z,6.46
2023-03-12T09:47:03.447Z,6.49
2023-03-12T09:50:17.955Z,6.57
2023-03-12T09:53:29.194Z,6.63
2023-03-12T09:56:32.713Z,6.68
2023-03-12T09:59:36.952Z,6.72
2023-03-12T10:03:09.759Z,6.82
2023-03-12T10:06:15.812Z,6.91
2023-03-12T10:09:56.653Z,7.07
2023-03-12T10:13:23.446Z,7.21
2023-03-12T10:16:40.854Z,7.38
2023-03-12T10:20:07.686Z,7.55
2023-03-12T10:23:14.562Z,7.71
2023-03-12T10:26:25.701Z,7.82
2023-03-12T10:29:33.081Z,8.02
2023-03-12T10:32:41.678Z,8.21
2023-03-12T10:35:44.530Z,8.35
2023-03-12T10:38:48.627Z,8.72
2023-03-12T10:41:53.105Z,8.81
2023-03-12T10:45:00.224Z,8.86
2023-03-12T10:48:04.911Z,8.96
2023-03-12T10:51:09.921Z,9.04
2023-03-12T10:54:22.813Z,9.01
2023-03-12T10:57:40.653Z,8.99
2023-03-12T11:00:57.782Z,8.96
2023-03-12T11:04:10.972Z,8.98
2023-03-12T11:07:26.137Z,9.14
2023-03-12T11:10:41.815Z,9.32
2023-03-12T11:13:45.990Z,9.53
2023-03-12T11:16:49.542Z,9.89
2023-03-12T11:19:52.776Z,10.25
2023-03-12T11:22:55.524Z,10.44
2023-03-12T11:26:01.893Z,10.55
2023-03-12T11:29:13.096Z,10.63
2023-03-12T11:32:19.154Z,10.80
2023-03-12T11:35:40.171Z,10.89
2023-03-12T11:38:49.017Z,11.08
2023-03-12T11:42:09.779Z,11.32
2023-03-12T11:45:27.737Z,11.55
2023-03-12T11:48:39.057Z,11.63
2023-03-12T11:51:52.987Z,11.62
2023-03-12T11:55:22.374Z,11.49
2023-03-12T11:58:40.665Z,11.38
2023-03-12T12:01:59.185Z,11.36
2023-03-12T12:05:20.305Z,11.38
2023-03-12T12:08:40.580Z,11.37
2023-03-12T12:11:56.217Z,11.50
2023-03-12T12:15:10.263Z,11.68
2023-03-12T12:18:34.421Z,11.95
2023-03-12T12:21:52.208Z,12.44
2023-03-12T12:25:17.976Z,12.74
2023-03-12T12:28:32.793Z,12.66
2023-03-12T12:31:41.432Z,12.52
2023-03-12T12:35:08.949Z,12.46
2023-03-12T12:38:15.591Z,12.37
2023-03-12T12:41:21.630Z,12.24
2023-03-12T12:44:28.582Z,12.14
2023-03-12T12:47:41.529Z,12.19
2023-03-12T12:50:47.282Z,12.32
2023-03-12T12:53:57.285Z,12.52
2023-03-12T12:57:06.306Z,12.55
2023-03-12T13:00:24.004Z,12.46
2023-03-12T13:03:29.252Z,12.40
2023-03-12T13:06:55.198Z,12.25
2023-03-12T13:09:59.551Z,12.15
2023-03-12T13:13:10.266Z,11.95
2023-03-12T13:16:29.132Z,11.90
2023-03-12T13:19:31.847Z,11.84
2023-03-12T13:23:00.426Z,11.84
2023-03-12T13:26:07.734Z,12.02
2023-03-12T13:29:20.924Z,12.32
2023-03-12T13:33:01.607Z,12.33
2023-03-12T13:36:12.625Z,12.28
2023-03-12T13:39:31.945Z,12.20
2023-03-12T13:42:41.732Z,12.11
2023-03-12T13:46:00.692Z,12.11
2023-03-12T13:49:10.498Z,12.07
2023-03-12T13:52:26.352Z,12.17
2023-03-12T13:55:31.867Z,12.20
2023-03-12T13:58:43.203Z,12.37
2023-03-12T14:01:49.958Z,12.36
2023-03-12T14:04:53.096Z,12.37
2023-03-12T14:08:04.045Z,12.30
2023-03-12T14:11:23.682Z,12.06
2023-03-12T14:15:00.399Z,11.93
2023-03-12T14:18:10.488Z,11.91
2023-03-12T14:21:17.106Z,11.81
2023-03-12T14:24:26.409Z,11.71
2023-03-12T14:27:33.440Z,11.56
2023-03-12T14:30:48.763Z,11.77
2023-03-12T14:33:57.030Z,11.94
2023-03-12T14:37:05.775Z,12.13
2023-03-12T14:40:19.712Z,12.42
2023-03-12T14:43:27.529Z,12.61
2023-03-12T14:46:30.766Z,12.71
2023-03-12T14:49:33.538Z,12.84
2023-03-12T14:52:36.176Z,12.83
2023-03-12T14:55:38.792Z,12.84
2023-03-12T14:58:46.588Z,12.99
2023-03-12T15:01:49.897Z,13.20
2023-03-12T15:04:56.347Z,13.45
2023-03-12T15:08:03.302Z,13.52
2023-03-12T15:11:05.994Z,13.48
2023-03-12T15:14:15.140Z,13.44
2023-03-12T15:17:19.555Z,13.25
2023-03-12T15:20:24.411Z,13.14
2023-03-12T15:23:30.457Z,12.92
2023-03-12T15:26:36.322Z,12.92
2023-03-12T15:29:42.598Z,12.88
2023-03-12T15:33:04.799Z,12.81
2023-03-12T15:36:21.272Z,12.85
2023-03-12T15:39:27.293Z,12.74
2023-03-12T15:42:30.407Z,12.57
2023-03-12T15:45:39.250Z,12.49
2023-03-12T15:48:48.046Z,12.47
2023-03-12T15:52:03.372Z,12.38
2023-03-12T15:55:23.035Z,12.34
2023-03-12T15:58:28.400Z,12.28
2023-03-12T16:01:45.424Z,12.30
2023-03-12T16:04:48.085Z,12.29
2023-03-12T16:07:50.765Z,12.31
2023-03-12T16:10:55.418Z,12.28
2023-03-12T16:14:04.104Z,12.22
2023-03-12T16:17:14.366Z,12.30
2023-03-12T16:20:18.419Z,12.18
2023-03-12T16:23:21.086Z,12.04
2023-03-12T16:26:23.719Z,12.03
2023-03-12T16:29:31.636Z,12.08
2023-03-12T16:32:36.780Z,12.22
2023-03-12T16:35:39.457Z,12.16
2023-03-12T16:38:42.413Z,12.07
2023-03-12T16:41:45.138Z,11.95
2023-03-12T16:44:48.164Z,12.06
2023-03-12T16:47:56.054Z,12.08
2023-03-12T16:50:59.005Z,12.04
2023-03-12T16:54:10.420Z,12.01
2023-03-12T16:57:23.299Z,11.95
2023-03-12T17:00:29.004Z,11.92
2023-03-12T17:03:37.113Z,11.94
2023-03-12T17:06:41.295Z,11.94
2023-03-12T17:09:43.912Z,12.09
2023-03-12T17:12:48.351Z,11.94
2023-03-12T17:15:51.616Z,11.86
2023-03-12T17:18:55.863Z,11.87
2023-03-12T17:21:58.536Z,11.84
2023-03-12T17:25:01.140Z,11.80
2023-03-12T17:28:03.901Z,11.65
2023-03-12T17:31:06.980Z,11.54
2023-03-12T17:34:11.038Z,11.49
2023-03-12T17:37:13.794Z,11.39
2023-03-12T17:40:16.959Z,11.45
2023-03-12T17:43:19.904Z,11.39
2023-03-12T17:46:22.701Z,11.37
2023-03-12T17:49:26.812Z,11.27
2023-03-12T17:52:31.760Z,11.19
2023-03-12T17:55:35.323Z,11.13
2023-03-12T17:58:38.021Z,11.15
2023-03-12T18:01:40.708Z,11.12
2023-03-12T18:04:45.018Z,11.12
2023-03-12T18:07:49.092Z,11.22
2023-03-12T18:10:51.744Z,11.20
2023-03-12T18:13:54.568Z,11.13
2023-03-12T18:16:57.268Z,11.26
2023-03-12T18:20:01.314Z,11.16
2023-03-12T18:23:03.937Z,11.09
2023-03-12T18:26:06.735Z,11.10
2023-03-12T18:29:09.376Z,11.08
2023-03-12T18:32:12.172Z,11.01
2023-03-12T18:35:16.436Z,10.96
2023-03-12T18:38:19.510Z,10.95
2023-03-12T18:41:28.615Z,10.92
2023-03-12T18:44:31.446Z,10.93
2023-03-12T18:47:34.851Z,10.94
2023-03-12T18:50:38.982Z,10.92
2023-03-12T18:53:41.654Z,10.88
2023-03-12T18:56:44.293Z,10.90
2023-03-12T18:59:47.132Z,10.98
2023-03-12T19:02:49.832Z,10.95
2023-03-12T19:06:03.264Z,10.92
2023-03-12T19:09:05.944Z,10.90
2023-03-12T19:12:08.956Z,10.90
2023-03-12T19:15:12.929Z,10.83
2023-03-12T19:18:15.641Z,10.72
2023-03-12T19:21:19.636Z,10.62
2023-03-12T19:24:22.404Z,10.51
2023-03-12T19:27:25.192Z,10.41
2023-03-12T19:30:30.602Z,10.31
2023-03-12T19:33:33.861Z,10.22
2023-03-12T19:36:37.787Z,10.06
2023-03-12T19:39:40.478Z,9.94
2023-03-12T19:42:43.112Z,9.81
2023-03-12T19:45:46.226Z,9.77
2023-03-12T19:48:49.891Z,9.71
2023-03-12T19:51:53.835Z,9.63
2023-03-12T19:55:04.347Z,9.61
2023-03-12T19:58:08.299Z,9.65
2023-03-12T20:01:11.060Z,9.69
2023-03-12T20:04:13.728Z,9.72
2023-03-12T20:07:18.470Z,9.73
2023-03-12T20:10:21.606Z,9.79
2023-03-12T20:13:24.258Z,9.92
2023-03-12T20:16:26.973Z,9.94
2023-03-12T20:19:29.952Z,9.92
2023-03-12T20:22:36.185Z,9.96
2023-03-12T20:25:40.749Z,9.96
2023-03-12T20:28:43.356Z,9.93
2023-03-12T20:31:46.082Z,9.84
2023-03-12T20:34:48.814Z,9.76
2023-03-12T20:37:52.905Z,9.67
2023-03-12T20:40:55.622Z,9.60
2023-03-12T20:43:58.840Z,9.57
2023-03-12T20:47:01.760Z,9.55
2023-03-12T20:50:04.858Z,9.51
2023-03-12T20:53:08.897Z,9.48
2023-03-12T20:56:12.479Z,9.43
2023-03-12T20:59:15.395Z,9.37
2023-03-12T21:02:18.458Z,9.29
2023-03-12T21:05:23.796Z,9.23
2023-03-12T21:08:29.470Z,9.17
2023-03-12T21:11:32.267Z,9.14
2023-03-12T21:14:34.939Z,9.14
2023-03-12T21:17:39.705Z,9.12
2023-03-12T21:20:42.910Z,9.14
2023-03-12T21:23:47.256Z,9.11
2023-03-12T21:26:49.929Z,9.10
2023-03-12T21:29:53.247Z,9.12
2023-03-12T21:32:56.189Z,9.12
2023-03-12T21:35:58.856Z,9.11
2023-03-12T21:39:03.089Z,9.11
2023-03-12T21:42:05.942Z,9.09
2023-03-12T21:45:10.718Z,9.09
2023-03-12T21:48:13.318Z,9.05
2023-03-12T21:51:18.253Z,8.96
2023-03-12T21:54:22.252Z,8.88
2023-03-12T21:57:24.886Z,8.86
2023-03-12T22:00:27.490Z,8.73
2023-03-12T22:03:30.218Z,8.66
2023-03-12T22:06:33.294Z,8.66
2023-03-12T22:09:37.226Z,8.63
2023-03-12T22:12:40.273Z,8.59
2023-03-12T22:15:43.077Z,8.51
2023-03-12T22:18:47.142Z,8.53
2023-03-12T22:21:49.770Z,8.49
2023-03-12T22:24:53.690Z,8.45
2023-03-12T22:27:56.324Z,8.44
2023-03-12T22:30:59.612Z,8.41
2023-03-12T22:34:02.220Z,8.34
2023-03-12T22:37:04.952Z,8.30
2023-03-12T22:40:10.632Z,8.26
2023-03-12T22:43:13.254Z,8.30
2023-03-12T22:46:16.854Z,8.30
2023-03-12T22:49:19.633Z,8.27
2023-03-12T22:52:22.311Z,8.28
2023-03-12T22:55:26.447Z,8.33
2023-03-12T22:58:29.505Z,8.35
2023-03-12T23:01:32.136Z,8.35
2023-03-12T23:04:35.158Z,8.37
2023-03-12T23:07:38.127Z,8.40
2023-03-12T23:10:42.342Z,8.39
2023-03-12T23:13:46.688Z,8.39
2023-03-12T23:16:49.332Z,8.37
2023-03-12T23:19:52.049Z,8.36
2023-03-12T23:22:54.727Z,8.36
2023-03-12T23:26:00.376Z,8.30
2023-03-12T23:29:03.328Z,8.22
2023-03-12T23:32:06.839Z,8.11
2023-03-12T23:35:09.971Z,8.13
2023-03-12T23:38:12.591Z,8.10
2023-03-12T23:41:18.620Z,8.06
2023-03-12T23:44:21.231Z,8.04
2023-03-12T23:47:23.939Z,7.95
2023-03-12T23:50:26.620Z,7.90
2023-03-12T23:53:29.235Z,7.79
2023-03-12T23:56:35.518Z,7.77
2023-03-12T23:59:38.182Z,7.70
